Terminal Aerodrome Forecast
Issued by NWS

Home | Current Version | Previous Version | Graphics & Text | Print | Product List | Glossary On
Versions: 1 2 3 4 5 6 7 8 9 10 11 12 13 14 15 16 17 18 19 20 21 22 23 24 25
000
FTUS43 KBIS 251500 AAA
TAFJMS
TAF AMD
KJMS 251520Z 2515/2612 33008KT P6SM SCT008 SCT013 BKN100
      TEMPO 2515/2516 BKN013
     FM251600 33014KT P6SM -SHSN BKN008 OVC015
     FM252000 34015KT P6SM -SHSN OVC015
     FM260600 33011KT 5SM BR OVC009=

USA.gov is the U.S. government's official web portal to all federal, state and local government web resources and services.